You are not logged in, Click here to log in
廈門高崎國際機場XMN / ZSAM 中國福建省廈門島東北端
ICAO: ZSAM Country: 中國福建省廈門島東北端
Latitude: 24.5391 Longitude: 118.134
Total Arrivals: 53 Total Departures: 49
Latest Arrival: CA4539 (ZUUU-ZSAM)Arthur. Kung Latest Departure: AE992 (ZSAM-RCTP)Arthur. Kung
Scenery:
METAR : ZSAM 221100Z 08005MPS CAVOK 18/11 Q1027 NOSIG

廈門高崎國際機場XMN